This is the latest recevied weather packets stored in our database for station/object SP5IZJ-2. If no packets are shown the sender has not sent any weather packets the latest 10 day(s).
| Time | Temp. | Humidity | Pressure | Rain* | Wind** | Luminosity | Snow |
|---|---|---|---|---|---|---|---|
| 1777764329 | 8.33° C | 60% | 1011.3 hPa | 0 mm | - | - | - |
| 1777763905 | 8.33° C | 60% | 1011.3 hPa | 0 mm | - | - | - |
| 1777763065 | 8.89° C | 60% | 1011.2 hPa | 0 mm | - | - | - |
| 1777760129 | 9.44° C | 54% | 1011.4 hPa | 0 mm | - | - | - |
| 1777759287 | 10° C | 53% | 1011.5 hPa | 0 mm | - | - | - |
| 1777758030 | 10.56° C | 53% | 1011.4 hPa | 0 mm | - | - | - |
| 1777757608 | 10.56° C | 53% | 1011.4 hPa | 0 mm | - | - | - |
| 1777756348 | 11.11° C | 51% | 1011.4 hPa | 0 mm | - | - | - |
| 1777755513 | 11.67° C | 50% | 1011.6 hPa | 0 mm | - | - | - |
| 1777754251 | 11.67° C | 48% | 1011.6 hPa | 0 mm | - | - | - |
| 1777753436 | 11.67° C | 48% | 1011.7 hPa | 0 mm | - | - | - |
| 1777752615 | 12.22° C | 48% | 1011.6 hPa | 0 mm | - | - | - |
| 1777749256 | 13.89° C | 43% | 1011.9 hPa | 0 mm | - | - | - |
| 1777748836 | 14.44° C | 42% | 1011.8 hPa | 0 mm | - | - | - |
| 1777748398 | 15° C | 41% | 1011.7 hPa | 0 mm | - | - | - |
| 1777747577 | 15° C | 40% | 1011.7 hPa | 0 mm | - | - | - |
| 1777747157 | 15.56° C | 39% | 1011.7 hPa | 0 mm | - | - | - |
| 1777745433 | 18.33° C | 33% | 1011.7 hPa | 0 mm | - | - | - |
| 1777745013 | 19.44° C | 32% | 1011.5 hPa | 0 mm | - | - | - |
| 1777742079 | 27.78° C | 24% | 1011.7 hPa | 0 mm | - | - | - |
| 1777741654 | 28.33° C | 23% | 1011.7 hPa | 0 mm | - | - | - |
| 1777741235 | 28.89° C | 23% | 1011.7 hPa | 0 mm | - | - | - |
| 1777740395 | 29.44° C | 22% | 1011.6 hPa | 0 mm | - | - | - |
| 1777739984 | 29.44° C | 22% | 1011.7 hPa | 0 mm | - | - | - |
| 1777739555 | 30° C | 22% | 1011.7 hPa | 0 mm | - | - | - |
* Rain latest hour (hover to see other rain measurements)
** Current wind speed in m/s (hover to see current wind gust speed)